createdAt,value
2023-04-24T00:01:59.598Z,1.77
2023-04-24T00:04:27.917Z,1.43
2023-04-24T00:06:55.387Z,2.97
2023-04-24T00:09:22.911Z,2.40
2023-04-24T00:11:50.446Z,2.60
2023-04-24T00:14:18.049Z,2.87
2023-04-24T00:16:45.670Z,2.50
2023-04-24T00:19:13.998Z,2.90
2023-04-24T00:21:41.452Z,3.60
2023-04-24T00:24:08.965Z,2.07
2023-04-24T00:26:37.292Z,3.37
2023-04-24T00:29:05.245Z,3.80
2023-04-24T00:31:32.792Z,2.92
2023-04-24T00:34:01.065Z,3.50
2023-04-24T00:36:28.647Z,5.63
2023-04-24T00:38:56.180Z,2.83
2023-04-24T00:41:23.707Z,3.73
2023-04-24T00:43:51.291Z,2.57
2023-04-24T00:46:18.848Z,3.17
2023-04-24T00:48:46.362Z,5.17
2023-04-24T00:51:13.954Z,3.30
2023-04-24T00:53:42.247Z,2.97
2023-04-24T00:56:09.780Z,5.27
2023-04-24T00:58:39.363Z,5.17
2023-04-24T01:01:06.061Z,6.93
2023-04-24T01:03:33.729Z,4.53
2023-04-24T01:06:01.157Z,3.87
2023-04-24T01:08:28.689Z,3.27
2023-04-24T01:10:56.981Z,5.07
2023-04-24T01:13:25.410Z,3.93
2023-04-24T01:15:52.990Z,4.03
2023-04-24T01:18:21.217Z,4.87
2023-04-24T01:20:49.610Z,3.87
2023-04-24T01:23:17.153Z,6.03
2023-04-24T01:25:45.456Z,4.97
2023-04-24T01:28:12.981Z,4.53
2023-04-24T01:30:41.278Z,4.47
2023-04-24T01:33:08.811Z,5.77
2023-04-24T01:35:36.384Z,7.87
2023-04-24T01:38:04.678Z,5.43
2023-04-24T01:40:32.199Z,6.03
2023-04-24T01:42:59.746Z,5.80
2023-04-24T01:45:27.270Z,5.63
2023-04-24T01:47:54.822Z,6.37
2023-04-24T01:50:22.489Z,5.90
2023-04-24T01:52:49.964Z,10.80
2023-04-24T01:55:17.501Z,8.73
2023-04-24T01:57:45.088Z,10.02
2023-04-24T02:00:12.655Z,8.60
2023-04-24T02:02:44.910Z,7.93
2023-04-24T02:05:10.405Z,7.23
2023-04-24T02:07:37.924Z,7.93
2023-04-24T02:10:06.345Z,6.33
2023-04-24T02:12:34.911Z,5.80
2023-04-24T02:15:02.445Z,8.20
2023-04-24T02:17:29.978Z,8.47
2023-04-24T02:19:57.505Z,8.00
2023-04-24T02:22:25.059Z,7.53
2023-04-24T02:24:52.590Z,6.63
2023-04-24T02:27:20.935Z,6.50
2023-04-24T02:29:48.451Z,7.73
2023-04-24T02:32:16.019Z,8.77
2023-04-24T02:34:44.334Z,8.70
2023-04-24T02:37:11.899Z,7.80
2023-04-24T02:39:39.428Z,7.73
2023-04-24T02:42:06.947Z,11.00
2023-04-24T02:44:34.515Z,8.77
2023-04-24T02:47:02.099Z,10.50
2023-04-24T02:49:29.633Z,10.23
2023-04-24T02:51:57.177Z,8.93
2023-04-24T02:54:25.530Z,10.90
2023-04-24T02:56:53.041Z,10.30
2023-04-24T02:59:20.579Z,11.75
2023-04-24T03:01:48.234Z,10.60
2023-04-24T03:04:15.933Z,12.40
2023-04-24T03:06:43.426Z,11.20
2023-04-24T03:09:11.327Z,10.23
2023-04-24T03:11:38.860Z,10.13
2023-04-24T03:14:06.378Z,10.77
2023-04-24T03:16:34.149Z,10.40
2023-04-24T03:19:02.298Z,9.27
2023-04-24T03:21:29.800Z,11.73
2023-04-24T03:23:57.367Z,11.87
2023-04-24T03:26:25.680Z,11.23
2023-04-24T03:28:53.193Z,10.23
2023-04-24T03:31:21.341Z,13.17
2023-04-24T03:33:48.845Z,11.53
2023-04-24T03:36:17.137Z,11.63
2023-04-24T03:38:44.721Z,13.18
2023-04-24T03:41:12.254Z,9.93
2023-04-24T03:43:39.792Z,14.37
2023-04-24T03:46:07.434Z,12.27
2023-04-24T03:48:34.961Z,11.17
2023-04-24T03:51:02.501Z,10.33
2023-04-24T03:53:30.569Z,11.10
2023-04-24T03:55:58.107Z,11.00
2023-04-24T03:58:25.637Z,11.37
2023-04-24T04:00:53.205Z,9.17
2023-04-24T04:03:20.905Z,8.50
2023-04-24T04:05:48.265Z,10.30
2023-04-24T04:08:15.862Z,12.63
2023-04-24T04:10:43.387Z,8.77
2023-04-24T04:13:11.672Z,15.13
2023-04-24T04:15:39.248Z,9.70
2023-04-24T04:18:06.826Z,9.27
2023-04-24T04:20:34.385Z,9.40
2023-04-24T04:23:01.906Z,8.87
2023-04-24T04:25:29.424Z,10.47
2023-04-24T04:27:57.706Z,9.70
2023-04-24T04:30:26.326Z,10.07
2023-04-24T04:32:53.855Z,8.67
2023-04-24T04:35:23.144Z,7.83
2023-04-24T04:37:49.722Z,8.63
2023-04-24T04:40:17.245Z,8.37
2023-04-24T04:42:45.544Z,8.60
2023-04-24T04:45:13.333Z,5.90
2023-04-24T04:47:41.535Z,7.10
2023-04-24T04:50:09.112Z,10.33
2023-04-24T04:52:36.661Z,8.80
2023-04-24T04:55:04.183Z,7.90
2023-04-24T04:57:31.713Z,8.03
2023-04-24T04:59:59.275Z,6.93
2023-04-24T05:02:26.904Z,8.13
2023-04-24T05:04:54.504Z,7.60
2023-04-24T05:07:22.062Z,7.83
2023-04-24T05:09:49.593Z,8.57
2023-04-24T05:12:17.903Z,5.67
2023-04-24T05:14:45.509Z,6.20
2023-04-24T05:17:13.077Z,7.43
2023-04-24T05:19:40.679Z,6.83
2023-04-24T05:22:08.899Z,6.20
2023-04-24T05:24:36.431Z,9.23
2023-04-24T05:27:03.959Z,7.65
2023-04-24T05:29:32.259Z,8.77
2023-04-24T05:31:59.783Z,8.73
2023-04-24T05:34:27.311Z,6.60
2023-04-24T05:36:54.847Z,8.90
2023-04-24T05:39:22.375Z,8.50
2023-04-24T05:41:49.906Z,9.13
2023-04-24T05:44:18.214Z,7.77
2023-04-24T05:46:45.838Z,8.67
2023-04-24T05:49:13.301Z,10.43
2023-04-24T05:51:41.902Z,7.47
2023-04-24T05:54:09.438Z,8.67
2023-04-24T05:56:37.743Z,8.00
2023-04-24T05:59:05.347Z,7.43
2023-04-24T06:01:32.868Z,10.73
2023-04-24T06:04:00.650Z,10.47
2023-04-24T06:06:28.814Z,8.07
2023-04-24T06:08:56.335Z,9.97
2023-04-24T06:11:24.626Z,9.23
2023-04-24T06:13:52.969Z,10.60
2023-04-24T06:16:20.501Z,9.10
2023-04-24T06:18:48.044Z,8.65
2023-04-24T06:21:17.424Z,10.23
2023-04-24T06:23:44.879Z,10.60
2023-04-24T06:26:12.448Z,9.07
2023-04-24T06:28:40.010Z,11.23
2023-04-24T06:31:07.526Z,12.73
2023-04-24T06:33:35.099Z,8.93
2023-04-24T06:36:02.642Z,10.60
2023-04-24T06:38:30.192Z,8.63
2023-04-24T06:40:57.719Z,8.68
2023-04-24T06:43:25.269Z,7.57
2023-04-24T06:45:52.826Z,9.97
2023-04-24T06:48:21.114Z,8.83
2023-04-24T06:50:48.648Z,6.17
2023-04-24T06:53:16.203Z,10.37
2023-04-24T06:55:44.472Z,8.03
2023-04-24T06:58:12.814Z,7.33
2023-04-24T07:00:40.346Z,8.83
2023-04-24T07:03:07.982Z,9.27
2023-04-24T07:05:36.261Z,7.77
2023-04-24T07:08:03.750Z,13.47
2023-04-24T07:10:31.266Z,9.63
2023-04-24T07:12:59.630Z,8.70
2023-04-24T07:15:27.948Z,8.30
2023-04-24T07:17:55.520Z,9.60
2023-04-24T07:20:23.032Z,9.70
2023-04-24T07:22:51.326Z,7.67
2023-04-24T07:25:18.867Z,9.00
2023-04-24T07:27:46.552Z,7.13
2023-04-24T07:30:14.094Z,7.03
2023-04-24T07:32:42.431Z,7.80
2023-04-24T07:35:10.128Z,9.60
2023-04-24T07:37:38.438Z,6.57
2023-04-24T07:40:06.031Z,8.50
2023-04-24T07:42:33.617Z,10.57
2023-04-24T07:45:01.923Z,8.95
2023-04-24T07:47:29.487Z,8.77
2023-04-24T07:49:57.809Z,9.30
2023-04-24T07:52:25.338Z,10.67
2023-04-24T07:54:52.875Z,9.98
2023-04-24T07:57:20.475Z,11.67
2023-04-24T07:59:48.006Z,9.97
2023-04-24T08:02:15.625Z,8.47
2023-04-24T08:04:43.339Z,7.63
2023-04-24T08:07:11.480Z,9.98
2023-04-24T08:09:39.021Z,7.73
2023-04-24T08:12:07.419Z,8.50
2023-04-24T08:14:36.019Z,9.27
2023-04-24T08:17:04.277Z,9.77
2023-04-24T08:19:31.877Z,7.97
2023-04-24T08:21:59.417Z,10.97
2023-04-24T08:24:26.926Z,7.70
2023-04-24T08:26:54.920Z,8.23
2023-04-24T08:29:22.800Z,9.20
2023-04-24T08:31:50.348Z,8.73
2023-04-24T08:34:17.916Z,12.93
2023-04-24T08:36:47.434Z,9.80
2023-04-24T08:39:13.030Z,10.47
2023-04-24T08:41:41.369Z,9.60
2023-04-24T08:44:10.618Z,13.90
2023-04-24T08:46:36.603Z,12.32
2023-04-24T08:49:04.193Z,11.27
2023-04-24T08:51:32.475Z,10.37
2023-04-24T08:53:59.984Z,11.57
2023-04-24T08:56:27.656Z,13.53
2023-04-24T08:58:55.190Z,10.53
2023-04-24T09:01:22.739Z,11.25
2023-04-24T09:03:50.442Z,10.37
2023-04-24T09:06:17.844Z,14.53
2023-04-24T09:08:45.403Z,11.67
2023-04-24T09:11:12.986Z,9.40
2023-04-24T09:13:40.519Z,12.53
2023-04-24T09:16:08.188Z,9.63
2023-04-24T09:18:36.499Z,8.63
2023-04-24T09:21:04.047Z,9.83
2023-04-24T09:23:31.569Z,9.77
2023-04-24T09:25:59.137Z,7.37
2023-04-24T09:28:32.418Z,7.50
2023-04-24T09:31:06.638Z,6.60
2023-04-24T09:33:34.195Z,6.93
2023-04-24T09:36:01.704Z,7.27
2023-04-24T09:38:32.272Z,6.13
2023-04-24T09:41:05.222Z,5.90
2023-04-24T09:43:32.767Z,6.97
2023-04-24T09:46:00.365Z,7.53
2023-04-24T09:48:31.414Z,9.50
2023-04-24T09:50:58.938Z,8.10
2023-04-24T09:53:27.085Z,7.20
2023-04-24T09:55:54.600Z,7.30
2023-04-24T09:58:28.620Z,10.57
2023-04-24T10:00:56.216Z,6.55
2023-04-24T10:03:26.424Z,6.30
2023-04-24T10:05:53.828Z,6.97
2023-04-24T10:08:21.420Z,6.73
2023-04-24T10:10:48.946Z,6.07
2023-04-24T10:13:16.478Z,7.47
2023-04-24T10:15:44.654Z,6.13
2023-04-24T10:18:12.542Z,8.20
2023-04-24T10:20:40.768Z,6.30
2023-04-24T10:23:08.332Z,5.73
2023-04-24T10:25:35.896Z,7.00
2023-04-24T10:28:03.452Z,6.37
2023-04-24T10:30:31.117Z,7.07
2023-04-24T10:32:58.677Z,7.33
2023-04-24T10:35:26.942Z,6.87
2023-04-24T10:38:09.659Z,5.47
2023-04-24T10:40:37.204Z,7.37
2023-04-24T10:43:04.753Z,8.47
2023-04-24T10:45:32.311Z,6.70
2023-04-24T10:47:59.908Z,8.17
2023-04-24T10:50:28.164Z,7.00
2023-04-24T10:52:55.746Z,6.40
2023-04-24T10:55:41.365Z,8.83
2023-04-24T10:58:09.725Z,5.67
2023-04-24T11:00:40.252Z,5.17
2023-04-24T11:03:07.915Z,8.93
2023-04-24T11:05:53.748Z,7.50
2023-04-24T11:08:24.029Z,7.30
2023-04-24T11:11:03.512Z,11.03
2023-04-24T11:13:55.368Z,8.77
2023-04-24T11:16:23.839Z,7.77
2023-04-24T11:18:54.151Z,10.67
2023-04-24T11:21:21.700Z,9.83
2023-04-24T11:23:49.264Z,9.03
2023-04-24T11:26:19.783Z,10.00
2023-04-24T11:28:50.388Z,13.07
2023-04-24T11:31:36.058Z,8.07
2023-04-24T11:34:12.615Z,10.03
2023-04-24T11:36:40.167Z,7.73
2023-04-24T11:39:08.703Z,10.03
2023-04-24T11:41:36.249Z,10.23
2023-04-24T11:44:04.546Z,13.70
2023-04-24T11:46:32.167Z,7.70
2023-04-24T11:48:59.661Z,8.27
2023-04-24T11:51:30.654Z,10.13
2023-04-24T11:54:03.704Z,7.93
2023-04-24T11:56:25.747Z,10.07
2023-04-24T11:58:55.983Z,9.13
2023-04-24T12:01:23.615Z,11.07
2023-04-24T12:03:51.299Z,13.27
2023-04-24T12:06:18.724Z,10.40
2023-04-24T12:08:49.812Z,9.33
2023-04-24T12:11:17.341Z,9.73
2023-04-24T12:13:44.902Z,8.77
2023-04-24T12:16:12.529Z,12.43
2023-04-24T12:18:42.940Z,11.40
2023-04-24T12:21:23.284Z,10.57
2023-04-24T12:23:50.187Z,10.73
2023-04-24T12:26:17.693Z,8.88
2023-04-24T12:28:45.279Z,10.53
2023-04-24T12:31:12.858Z,7.80
2023-04-24T12:33:40.483Z,8.00
2023-04-24T12:36:08.179Z,8.45
2023-04-24T12:38:35.716Z,8.43
2023-04-24T12:41:07.113Z,8.30
2023-04-24T12:43:34.685Z,10.27
2023-04-24T12:46:02.264Z,9.57
2023-04-24T12:48:29.791Z,9.00
2023-04-24T12:51:00.003Z,7.77
2023-04-24T12:53:27.526Z,8.63
2023-04-24T12:55:55.072Z,8.03
2023-04-24T12:58:22.630Z,9.90
2023-04-24T13:00:50.983Z,9.60
2023-04-24T13:03:18.620Z,6.23
2023-04-24T13:05:46.813Z,9.03
2023-04-24T13:08:14.337Z,5.03
2023-04-24T13:10:41.896Z,7.23
2023-04-24T13:13:09.471Z,7.47
2023-04-24T13:15:37.013Z,5.73
2023-04-24T13:18:04.591Z,6.90
2023-04-24T13:20:32.166Z,5.93
2023-04-24T13:23:00.153Z,6.40
2023-04-24T13:25:27.691Z,6.87
2023-04-24T13:27:55.288Z,7.05
2023-04-24T13:30:23.576Z,6.63
2023-04-24T13:32:52.252Z,7.57
2023-04-24T13:35:19.815Z,11.60
2023-04-24T13:37:48.122Z,8.53
2023-04-24T13:40:15.640Z,7.80
2023-04-24T13:42:44.793Z,8.47
2023-04-24T13:45:23.830Z,7.25
2023-04-24T13:47:40.007Z,8.17
2023-04-24T13:50:07.651Z,9.30
2023-04-24T13:52:35.179Z,7.77
2023-04-24T13:55:03.482Z,8.37
2023-04-24T13:57:31.357Z,9.63
2023-04-24T13:59:58.880Z,8.43
2023-04-24T14:02:27.332Z,10.27
2023-04-24T14:04:54.881Z,8.87
2023-04-24T14:07:22.305Z,8.63
2023-04-24T14:09:49.840Z,8.17
2023-04-24T14:12:18.185Z,8.47
2023-04-24T14:14:45.733Z,10.07
2023-04-24T14:17:13.260Z,8.50
2023-04-24T14:19:40.836Z,8.97
2023-04-24T14:22:08.369Z,8.60
2023-04-24T14:24:36.683Z,7.53
2023-04-24T14:27:04.539Z,6.87
2023-04-24T14:29:33.148Z,7.97
2023-04-24T14:31:59.661Z,7.60
2023-04-24T14:34:27.140Z,6.53
2023-04-24T14:36:54.679Z,7.60
2023-04-24T14:39:22.224Z,4.43
2023-04-24T14:41:50.543Z,3.63
2023-04-24T14:44:18.089Z,5.00
2023-04-24T14:46:45.636Z,4.00
2023-04-24T14:49:13.207Z,4.83
2023-04-24T14:51:40.732Z,4.60
2023-04-24T14:54:08.261Z,4.00
2023-04-24T14:56:36.707Z,3.03
2023-04-24T14:59:04.132Z,2.97
2023-04-24T15:01:31.719Z,3.97
2023-04-24T15:04:00.276Z,4.60
2023-04-24T15:06:27.564Z,3.20
2023-04-24T15:08:55.084Z,3.97
2023-04-24T15:11:22.657Z,4.83
2023-04-24T15:13:50.190Z,4.10
2023-04-24T15:16:18.542Z,4.33
2023-04-24T15:18:46.102Z,3.60
2023-04-24T15:21:13.632Z,2.67
2023-04-24T15:23:41.179Z,2.97
2023-04-24T15:26:09.735Z,2.63
2023-04-24T15:28:37.265Z,2.70
2023-04-24T15:31:05.576Z,2.00
2023-04-24T15:33:33.233Z,1.57
2023-04-24T15:36:00.776Z,2.43
2023-04-24T15:38:29.062Z,1.53
2023-04-24T15:40:56.636Z,2.30
2023-04-24T15:43:24.156Z,4.10
2023-04-24T15:45:52.487Z,3.43
2023-04-24T15:48:20.768Z,2.60
2023-04-24T15:50:48.281Z,3.10
2023-04-24T15:53:15.810Z,2.47
2023-04-24T15:55:43.411Z,2.77
2023-04-24T15:58:10.942Z,6.63
2023-04-24T16:00:39.276Z,4.03
2023-04-24T16:03:09.326Z,4.00
2023-04-24T16:05:34.371Z,4.03
2023-04-24T16:08:01.921Z,4.70
2023-04-24T16:10:29.490Z,3.97
2023-04-24T16:12:57.022Z,3.10
2023-04-24T16:15:25.321Z,4.77
2023-04-24T16:17:52.918Z,3.70
2023-04-24T16:20:20.436Z,6.57
2023-04-24T16:22:47.962Z,4.37
2023-04-24T16:25:16.323Z,3.93
2023-04-24T16:27:43.847Z,5.43
2023-04-24T16:30:11.601Z,4.07
2023-04-24T16:32:39.254Z,3.20
2023-04-24T16:35:06.771Z,3.77
2023-04-24T16:37:34.320Z,5.55
2023-04-24T16:40:01.863Z,5.97
2023-04-24T16:42:29.403Z,4.87
2023-04-24T16:44:56.966Z,4.70
2023-04-24T16:47:24.699Z,4.77
2023-04-24T16:49:52.066Z,4.07
2023-04-24T16:52:19.595Z,6.03
2023-04-24T16:54:47.945Z,6.17
2023-04-24T16:57:15.484Z,5.73
2023-04-24T16:59:43.038Z,3.53
2023-04-24T17:02:10.698Z,4.30
2023-04-24T17:04:38.251Z,4.17
2023-04-24T17:07:05.754Z,5.32
2023-04-24T17:09:33.311Z,4.77
2023-04-24T17:12:00.851Z,5.40
2023-04-24T17:14:28.378Z,4.22
2023-04-24T17:16:56.042Z,3.97
2023-04-24T17:19:23.528Z,3.17
2023-04-24T17:21:51.048Z,3.07
2023-04-24T17:24:19.339Z,2.40
2023-04-24T17:26:46.907Z,6.27
2023-04-24T17:29:15.581Z,3.97
2023-04-24T17:31:43.169Z,4.17
2023-04-24T17:34:11.408Z,5.17
2023-04-24T17:36:38.941Z,4.43
2023-04-24T17:39:07.275Z,2.60
2023-04-24T17:41:34.805Z,2.97
2023-04-24T17:44:02.377Z,6.10
2023-04-24T17:46:30.015Z,4.57
2023-04-24T17:48:57.499Z,3.63
2023-04-24T17:51:25.054Z,5.87
2023-04-24T17:53:52.694Z,3.50
2023-04-24T17:56:20.311Z,4.70
2023-04-24T17:58:48.149Z,4.43
2023-04-24T18:01:16.235Z,5.30
2023-04-24T18:03:46.671Z,4.53
2023-04-24T18:06:13.981Z,5.37
2023-04-24T18:08:41.565Z,6.17
2023-04-24T18:11:09.107Z,5.17
2023-04-24T18:13:36.718Z,5.73
2023-04-24T18:16:04.322Z,5.53
2023-04-24T18:18:32.579Z,5.03
2023-04-24T18:21:00.122Z,5.13
2023-04-24T18:23:28.041Z,4.90
2023-04-24T18:25:55.569Z,4.77
2023-04-24T18:28:23.090Z,5.00
2023-04-24T18:30:50.680Z,4.60
2023-04-24T18:33:19.097Z,4.63
2023-04-24T18:35:47.343Z,4.77
2023-04-24T18:38:14.913Z,4.60
2023-04-24T18:40:42.476Z,4.83
2023-04-24T18:43:10.739Z,4.00
2023-04-24T18:45:38.652Z,4.90
2023-04-24T18:48:06.252Z,4.30
2023-04-24T18:50:33.779Z,6.67
2023-04-24T18:53:01.295Z,4.63
2023-04-24T18:55:28.825Z,4.70
2023-04-24T18:57:57.108Z,4.30
2023-04-24T19:00:25.716Z,4.87
2023-04-24T19:02:53.345Z,6.90
2023-04-24T19:05:20.766Z,7.27
2023-04-24T19:07:48.323Z,5.63
2023-04-24T19:10:15.844Z,8.40
2023-04-24T19:12:43.375Z,7.87
2023-04-24T19:15:11.918Z,6.47
2023-04-24T19:17:39.474Z,8.13
2023-04-24T19:20:07.145Z,6.80
2023-04-24T19:22:34.984Z,7.47
2023-04-24T19:25:02.517Z,8.47
2023-04-24T19:27:30.042Z,6.70
2023-04-24T19:29:57.610Z,6.17
2023-04-24T19:32:25.296Z,7.10
2023-04-24T19:34:52.738Z,8.43
2023-04-24T19:37:21.080Z,5.23
2023-04-24T19:39:48.593Z,8.03
2023-04-24T19:42:16.132Z,5.93
2023-04-24T19:44:44.566Z,6.37
2023-04-24T19:47:12.079Z,7.50
2023-04-24T19:49:39.598Z,7.33
2023-04-24T19:52:07.712Z,6.33
2023-04-24T19:54:35.237Z,8.27
2023-04-24T19:57:02.791Z,8.20
2023-04-24T19:59:31.338Z,8.70
2023-04-24T20:01:57.989Z,10.32
2023-04-24T20:04:26.471Z,7.73
2023-04-24T20:06:54.121Z,9.20
2023-04-24T20:09:21.676Z,8.13
2023-04-24T20:11:49.941Z,9.63
2023-04-24T20:14:17.525Z,9.53
2023-04-24T20:16:45.059Z,10.17
2023-04-24T20:19:15.220Z,10.73
2023-04-24T20:21:42.793Z,10.10
2023-04-24T20:24:10.327Z,9.90
2023-04-24T20:26:37.852Z,12.18
2023-04-24T20:29:05.432Z,10.27
2023-04-24T20:31:33.096Z,9.53
2023-04-24T20:34:01.252Z,9.30
2023-04-24T20:36:28.845Z,8.70
2023-04-24T20:38:56.399Z,8.93
2023-04-24T20:41:23.932Z,8.90
2023-04-24T20:43:51.595Z,13.73
2023-04-24T20:46:19.320Z,11.40
2023-04-24T20:48:46.976Z,9.70
2023-04-24T20:51:15.410Z,9.03
2023-04-24T20:53:42.932Z,11.33
2023-04-24T20:56:10.476Z,9.93
2023-04-24T20:58:38.064Z,11.57
2023-04-24T21:01:06.442Z,14.18
2023-04-24T21:03:34.022Z,11.67
2023-04-24T21:06:02.471Z,11.50
2023-04-24T21:08:30.811Z,9.60
2023-04-24T21:10:58.334Z,10.83
2023-04-24T21:13:25.950Z,12.90
2023-04-24T21:15:53.496Z,12.17
2023-04-24T21:18:21.039Z,11.43
2023-04-24T21:20:48.633Z,11.63
2023-04-24T21:23:16.941Z,13.20
2023-04-24T21:25:44.459Z,11.43
2023-04-24T21:28:12.034Z,10.07
2023-04-24T21:30:40.326Z,11.40
2023-04-24T21:33:07.910Z,10.20
2023-04-24T21:35:36.222Z,15.73
2023-04-24T21:38:03.755Z,15.00
2023-04-24T21:40:31.282Z,16.57
2023-04-24T21:42:58.857Z,17.53
2023-04-24T21:45:26.402Z,13.93
2023-04-24T21:47:53.972Z,11.93
2023-04-24T21:50:21.511Z,11.57
2023-04-24T21:52:49.805Z,12.80
2023-04-24T21:55:17.353Z,12.20
2023-04-24T21:57:45.685Z,13.30
2023-04-24T22:00:13.192Z,11.23
2023-04-24T22:02:40.826Z,12.73
2023-04-24T22:05:09.223Z,11.60
2023-04-24T22:07:37.534Z,12.67
2023-04-24T22:10:05.176Z,10.80
2023-04-24T22:12:33.452Z,12.20
2023-04-24T22:15:01.001Z,13.50
2023-04-24T22:17:28.575Z,13.80
2023-04-24T22:19:56.895Z,13.17
2023-04-24T22:22:24.431Z,10.30
2023-04-24T22:24:51.955Z,11.10
2023-04-24T22:27:19.541Z,14.57
2023-04-24T22:29:47.148Z,11.00
2023-04-24T22:32:14.670Z,11.70
2023-04-24T22:34:42.217Z,14.20
2023-04-24T22:37:09.781Z,13.03
2023-04-24T22:39:37.491Z,12.00
2023-04-24T22:42:05.031Z,14.50
2023-04-24T22:44:32.589Z,14.97
2023-04-24T22:47:00.144Z,12.47
2023-04-24T22:49:27.794Z,13.27
2023-04-24T22:51:55.516Z,12.73
2023-04-24T22:54:23.053Z,12.30
2023-04-24T22:56:51.355Z,12.43
2023-04-24T22:59:18.909Z,13.50
2023-04-24T23:01:46.526Z,11.53
2023-04-24T23:04:14.096Z,12.63
2023-04-24T23:06:41.547Z,12.67
2023-04-24T23:09:09.071Z,12.77
2023-04-24T23:11:36.615Z,12.80
2023-04-24T23:14:04.175Z,12.60
2023-04-24T23:16:31.725Z,12.57
2023-04-24T23:18:59.242Z,12.47
2023-04-24T23:21:26.826Z,14.20
2023-04-24T23:23:55.121Z,14.87
2023-04-24T23:26:22.658Z,12.97
2023-04-24T23:28:51.216Z,13.90
2023-04-24T23:31:18.584Z,15.10
2023-04-24T23:33:46.232Z,13.23
2023-04-24T23:36:13.691Z,13.00
2023-04-24T23:38:49.602Z,14.80
2023-04-24T23:41:08.770Z,16.58
2023-04-24T23:43:36.384Z,15.13
2023-04-24T23:46:04.751Z,14.00
2023-04-24T23:48:32.257Z,14.20
2023-04-24T23:50:59.847Z,15.30
2023-04-24T23:53:27.376Z,14.30
2023-04-24T23:55:54.896Z,12.70
2023-04-24T23:58:24.084Z,13.07
